createdAt,value
2022-12-31T00:02:04.662Z,7.51
2022-12-31T00:07:07.406Z,9.51
2022-12-31T00:12:10.099Z,10.00
2022-12-31T00:17:12.781Z,7.95
2022-12-31T00:22:15.436Z,7.50
2022-12-31T00:27:18.347Z,9.52
2022-12-31T00:32:21.016Z,10.05
2022-12-31T00:37:23.666Z,8.08
2022-12-31T00:42:26.365Z,7.54
2022-12-31T00:47:29.061Z,9.52
2022-12-31T00:52:31.749Z,10.37
2022-12-31T00:57:34.447Z,8.56
2022-12-31T01:02:37.300Z,7.81
2022-12-31T01:07:40.079Z,9.74
2022-12-31T01:12:42.753Z,9.93
2022-12-31T01:17:45.495Z,7.80
2022-12-31T01:22:48.176Z,7.48
2022-12-31T01:27:50.795Z,9.55
2022-12-31T01:32:53.449Z,10.32
2022-12-31T01:37:56.095Z,8.39
2022-12-31T01:42:58.839Z,6.83
2022-12-31T01:48:03.944Z,7.65
2022-12-31T01:53:08.510Z,10.08
2022-12-31T01:58:18.715Z,10.20
2022-12-31T02:03:23.500Z,8.12
2022-12-31T02:08:26.498Z,7.01
2022-12-31T02:13:29.208Z,8.66
2022-12-31T02:18:37.921Z,10.37
2022-12-31T02:23:45.549Z,9.91
2022-12-31T02:28:54.323Z,7.83
2022-12-31T02:34:13.091Z,7.74
2022-12-31T02:39:16.616Z,9.99
2022-12-31T02:44:24.919Z,10.30
2022-12-31T02:49:37.265Z,8.52
2022-12-31T02:54:45.025Z,8.36
2022-12-31T02:59:59.830Z,10.55
2022-12-31T03:05:03.911Z,10.72
2022-12-31T03:10:07.451Z,8.94
2022-12-31T03:15:20.467Z,10.35
2022-12-31T03:20:49.000Z,10.96
2022-12-31T03:25:53.352Z,8.97
2022-12-31T03:31:01.479Z,8.89
2022-12-31T03:36:13.836Z,10.97
2022-12-31T03:41:16.486Z,11.05
2022-12-31T03:46:19.239Z,9.91
2022-12-31T03:51:22.171Z,11.47
2022-12-31T03:56:25.034Z,11.03
2022-12-31T04:01:27.741Z,9.16
2022-12-31T04:06:30.551Z,9.42
2022-12-31T04:11:33.263Z,11.42
2022-12-31T04:16:35.935Z,11.44
2022-12-31T04:21:38.708Z,9.63
2022-12-31T04:26:42.480Z,10.62
2022-12-31T04:31:45.265Z,11.86
2022-12-31T04:36:48.124Z,10.76
2022-12-31T04:41:51.248Z,10.07
2022-12-31T04:46:53.978Z,11.57
2022-12-31T04:51:56.656Z,11.35
2022-12-31T04:56:59.545Z,9.86
2022-12-31T05:02:02.399Z,11.02
2022-12-31T05:07:05.329Z,11.68
2022-12-31T05:12:07.991Z,11.94
2022-12-31T05:17:10.649Z,12.38
2022-12-31T05:22:16.296Z,12.63
2022-12-31T05:27:18.924Z,11.68
2022-12-31T05:32:21.671Z,10.08
2022-12-31T05:37:24.376Z,11.18
2022-12-31T05:42:27.360Z,12.00
2022-12-31T05:47:30.004Z,12.39
2022-12-31T05:52:32.706Z,12.46
2022-12-31T05:57:35.370Z,12.77
2022-12-31T06:02:38.161Z,12.11
2022-12-31T06:07:40.979Z,10.75
2022-12-31T06:12:43.604Z,11.67
2022-12-31T06:17:46.340Z,12.04
2022-12-31T06:22:49.009Z,12.64
2022-12-31T06:27:51.651Z,13.02
2022-12-31T06:32:55.724Z,11.68
2022-12-31T06:37:58.398Z,11.95
2022-12-31T06:43:01.272Z,12.58
2022-12-31T06:48:04.333Z,13.09
2022-12-31T06:53:08.136Z,12.50
2022-12-31T06:58:13.643Z,10.46
2022-12-31T07:03:27.514Z,11.16
2022-12-31T07:08:33.206Z,12.38
2022-12-31T07:13:46.320Z,13.05
2022-12-31T07:19:04.959Z,13.33
2022-12-31T07:24:09.842Z,11.77
2022-12-31T07:29:16.487Z,10.75
2022-12-31T07:34:35.578Z,12.40
2022-12-31T07:39:45.878Z,13.21
2022-12-31T07:44:58.546Z,13.36
2022-12-31T07:50:01.468Z,12.60
2022-12-31T07:55:04.463Z,10.55
2022-12-31T08:00:13.245Z,10.80
2022-12-31T08:05:24.698Z,12.50
2022-12-31T08:10:31.230Z,12.96
2022-12-31T08:15:38.043Z,13.56
2022-12-31T08:20:54.112Z,12.47
2022-12-31T08:25:59.861Z,11.16
2022-12-31T08:31:07.906Z,12.85
2022-12-31T08:36:25.981Z,13.72
2022-12-31T08:41:37.601Z,12.51
2022-12-31T08:47:03.417Z,13.45
2022-12-31T08:52:14.751Z,13.79
2022-12-31T08:57:21.411Z,11.85
2022-12-31T09:02:28.971Z,11.44
2022-12-31T09:07:37.926Z,13.21
2022-12-31T09:13:02.970Z,14.10
2022-12-31T09:18:06.001Z,12.61
2022-12-31T09:23:08.924Z,13.27
2022-12-31T09:28:18.037Z,14.25
2022-12-31T09:33:39.018Z,12.70
2022-12-31T09:38:47.648Z,13.76
2022-12-31T09:44:03.806Z,14.02
2022-12-31T09:49:09.283Z,12.03
2022-12-31T09:54:30.539Z,11.00
2022-12-31T09:59:38.996Z,12.85
2022-12-31T10:04:52.252Z,14.32
2022-12-31T10:10:04.016Z,14.97
2022-12-31T10:15:29.474Z,13.91
2022-12-31T10:20:48.170Z,12.99
2022-12-31T10:25:55.771Z,14.45
2022-12-31T10:31:13.245Z,15.13
2022-12-31T10:36:30.157Z,15.47
2022-12-31T10:41:48.835Z,15.67
2022-12-31T10:46:54.575Z,13.74
2022-12-31T10:51:59.321Z,13.05
2022-12-31T10:57:07.221Z,14.56
2022-12-31T11:02:14.078Z,15.17
2022-12-31T11:07:40.031Z,15.50
2022-12-31T11:12:45.691Z,14.31
2022-12-31T11:17:52.273Z,13.44
2022-12-31T11:22:59.780Z,14.79
2022-12-31T11:28:02.424Z,15.44
2022-12-31T11:33:10.876Z,15.68
2022-12-31T11:38:16.508Z,15.97
2022-12-31T11:43:39.525Z,16.10
2022-12-31T11:48:47.043Z,16.12
2022-12-31T11:53:50.698Z,16.24
2022-12-31T11:58:55.458Z,16.37
2022-12-31T12:03:58.314Z,15.90
2022-12-31T12:09:05.655Z,13.64
2022-12-31T12:14:14.299Z,13.40
2022-12-31T12:19:18.527Z,14.76
2022-12-31T12:24:27.077Z,15.23
2022-12-31T12:29:34.421Z,15.49
2022-12-31T12:34:40.154Z,15.74
2022-12-31T12:40:00.840Z,15.67
2022-12-31T12:45:27.625Z,15.94
2022-12-31T12:50:46.173Z,15.59
2022-12-31T12:55:54.916Z,15.63
2022-12-31T13:01:10.874Z,15.54
2022-12-31T13:06:16.906Z,15.42
2022-12-31T13:11:33.086Z,15.76
2022-12-31T13:16:36.564Z,16.23
2022-12-31T13:21:46.688Z,16.21
2022-12-31T13:26:53.331Z,15.68
2022-12-31T13:31:57.774Z,16.01
2022-12-31T13:37:06.876Z,16.48
2022-12-31T13:42:19.535Z,16.59
2022-12-31T13:47:32.682Z,16.43
2022-12-31T13:52:42.861Z,16.40
2022-12-31T13:57:52.729Z,16.25
2022-12-31T14:02:59.337Z,16.37
2022-12-31T14:08:05.582Z,16.34
2022-12-31T14:13:20.761Z,16.65
2022-12-31T14:18:32.615Z,16.56
2022-12-31T14:23:36.253Z,16.54
2022-12-31T14:28:48.016Z,16.76
2022-12-31T14:34:19.042Z,16.80
2022-12-31T14:39:23.657Z,17.04
2022-12-31T14:44:36.655Z,17.20
2022-12-31T14:49:49.937Z,17.41
2022-12-31T14:54:58.486Z,16.70
2022-12-31T15:00:22.020Z,15.77
2022-12-31T15:05:28.405Z,16.44
2022-12-31T15:10:35.036Z,16.31
2022-12-31T15:16:00.806Z,16.89
2022-12-31T15:21:09.547Z,17.09
2022-12-31T15:26:22.281Z,17.36
2022-12-31T15:38:18.456Z,17.52
2022-12-31T15:43:24.019Z,17.61
2022-12-31T15:48:50.271Z,16.44
2022-12-31T15:53:58.304Z,17.13
2022-12-31T15:59:03.734Z,17.23
2022-12-31T16:04:14.600Z,17.52
2022-12-31T16:09:30.939Z,17.71
2022-12-31T16:14:37.358Z,17.26
2022-12-31T16:19:44.470Z,15.95
2022-12-31T16:25:29.125Z,16.86
2022-12-31T16:30:22.575Z,17.59
2022-12-31T16:35:27.459Z,17.86
2022-12-31T16:40:30.495Z,16.41
2022-12-31T16:45:35.666Z,15.55
2022-12-31T16:50:38.556Z,16.73
2022-12-31T16:55:41.456Z,17.32
2022-12-31T17:00:45.766Z,17.42
2022-12-31T17:06:12.480Z,17.52
2022-12-31T17:11:23.193Z,17.67
2022-12-31T17:16:27.112Z,17.51
2022-12-31T17:21:31.672Z,17.61
2022-12-31T17:26:38.290Z,17.68
2022-12-31T17:31:57.204Z,17.72
2022-12-31T17:36:59.835Z,18.05
2022-12-31T17:42:02.492Z,17.92
2022-12-31T17:47:06.028Z,17.75
2022-12-31T17:52:13.186Z,17.80
2022-12-31T17:57:25.719Z,17.75
2022-12-31T18:02:28.466Z,17.75
2022-12-31T18:07:31.274Z,17.85
2022-12-31T18:12:35.550Z,18.10
2022-12-31T18:17:38.176Z,17.90
2022-12-31T18:22:43.484Z,17.69
2022-12-31T18:27:46.363Z,17.89
2022-12-31T18:32:49.030Z,17.90
2022-12-31T18:37:51.803Z,17.92
2022-12-31T18:42:57.344Z,17.87
2022-12-31T18:48:04.134Z,17.80
2022-12-31T18:53:07.415Z,17.83
2022-12-31T18:58:11.301Z,17.86
2022-12-31T19:03:18.162Z,17.76
2022-12-31T19:08:22.767Z,17.47
2022-12-31T19:13:25.416Z,17.28
2022-12-31T19:18:28.056Z,17.29
2022-12-31T19:23:30.849Z,17.29
2022-12-31T19:28:33.497Z,17.41
2022-12-31T19:33:36.223Z,17.50
2022-12-31T19:38:38.831Z,17.75
2022-12-31T19:43:41.534Z,17.74
2022-12-31T19:48:45.684Z,17.49
2022-12-31T19:53:50.018Z,17.71
2022-12-31T19:58:52.644Z,17.92
2022-12-31T20:03:56.442Z,18.10
2022-12-31T20:08:59.237Z,18.01
2022-12-31T20:14:01.907Z,17.97
2022-12-31T20:19:05.916Z,18.02
2022-12-31T20:24:08.914Z,17.58
2022-12-31T20:29:11.626Z,15.76
2022-12-31T20:34:14.247Z,16.56
2022-12-31T20:39:17.260Z,17.14
2022-12-31T20:44:19.925Z,17.79
2022-12-31T20:49:37.508Z,18.07
2022-12-31T20:54:45.287Z,18.15
2022-12-31T20:59:47.998Z,17.21
2022-12-31T21:04:50.795Z,16.31
2022-12-31T21:09:53.578Z,17.37
2022-12-31T21:14:56.343Z,17.66
2022-12-31T21:19:58.952Z,17.83
2022-12-31T21:25:02.876Z,18.02
2022-12-31T21:30:21.569Z,17.68
2022-12-31T21:40:47.130Z,17.16
2022-12-31T21:46:01.017Z,17.71
2022-12-31T21:51:08.495Z,17.92
2022-12-31T21:56:13.576Z,18.06
2022-12-31T22:01:23.181Z,18.09
2022-12-31T22:06:26.226Z,18.02
2022-12-31T22:11:29.353Z,17.81
2022-12-31T22:16:32.028Z,18.02
2022-12-31T22:21:34.657Z,17.96
2022-12-31T22:26:40.363Z,16.93
2022-12-31T22:31:47.448Z,17.70
2022-12-31T22:36:50.064Z,17.98
2022-12-31T22:41:52.887Z,18.08
2022-12-31T22:46:56.331Z,18.05
2022-12-31T22:52:01.866Z,16.77
2022-12-31T22:57:10.359Z,17.61
2022-12-31T23:02:16.491Z,18.01
2022-12-31T23:07:19.412Z,16.68
2022-12-31T23:12:22.384Z,16.77
2022-12-31T23:17:32.016Z,17.71
2022-12-31T23:22:38.025Z,17.90
2022-12-31T23:27:40.723Z,16.53
2022-12-31T23:32:43.518Z,17.48
2022-12-31T23:37:46.220Z,18.37
2022-12-31T23:42:50.474Z,17.53
2022-12-31T23:47:53.112Z,17.03
2022-12-31T23:52:56.038Z,18.22
2022-12-31T23:57:58.721Z,18.48
